WetterOnline ( https://www.wetteronline.de )

Wetter aktuell Rostock

Aktuelles Wetter: Rostock-Warnemünde (10m)

6-stündlich | Neueste Meldungen
Ortszeit Temperatur Wetter
So, 29.01. 7:00 4.1° C bewölkt
So, 29.01. 1:00 2.6° C bedeckt
Sa, 28.01. 19:00 1.7° C bewölkt
Sa, 28.01. 13:00 2.7° C wolkig
Sa, 28.01. 7:00 1.8° C bedeckt
Sa, 28.01. 1:00 2.5° C bedeckt
Fr, 27.01. 19:00 2.7° C bedeckt
Fr, 27.01. 13:00 3.5° C bewölkt
Ortszeit Temperatur Wetter
So, 29.01. 7:00 4.1° C bewölkt
So, 29.01. 6:50 4.1° C bewölkt
So, 29.01. 6:40 4.2° C bedeckt
So, 29.01. 6:30 4.2° C bedeckt
So, 29.01. 6:20 4.2° C bedeckt
So, 29.01. 6:10 4.2° C bedeckt
So, 29.01. 6:00 4.0° C bedeckt
So, 29.01. 5:30 3.7° C bedeckt
So, 29.01. 5:00 3.6° C bedeckt
So, 29.01. 4:30 3.5° C bewölkt
So, 29.01. 4:00 3.5° C bedeckt
Ortszeit Relative Feuchte Sichtweite
So, 29.01. 7:00 90% 20 km
So, 29.01. 1:00 94% 7 km
Sa, 28.01. 19:00 80% 30 km
Sa, 28.01. 13:00 67% 50 km
Sa, 28.01. 7:00 79% 65 km
Sa, 28.01. 1:00 62% >70 km
Fr, 27.01. 19:00 70% 65 km
Fr, 27.01. 13:00 69% 50 km
Ortszeit Relative Feuchte Sichtweite
So, 29.01. 7:00 90% 20 km
So, 29.01. 6:50 90% -
So, 29.01. 6:40 90% -
So, 29.01. 6:30 90% 21 km
So, 29.01. 6:20 90% -
So, 29.01. 6:10 91% -
So, 29.01. 6:00 91% 22 km
So, 29.01. 5:30 93% 19 km
So, 29.01. 5:00 92% 19 km
So, 29.01. 4:30 94% 13 km
So, 29.01. 4:00 94% 13 km
Ortszeit Niederschlagsmenge Niederschlagsart
So, 29.01. 7:00 0.1 l/m2 in 12 Std. Regen
So, 29.01. 1:00 0.1 l/m2 in 6 Std. Regen
Sa, 28.01. 19:00 0.1 l/m2 in 12 Std. Schnee, Sprühregen
Sa, 28.01. 13:00 0.0 l/m2 in 6 Std. -
Sa, 28.01. 7:00 0.1 l/m2 in 12 Std. -
Sa, 28.01. 1:00 0.1 l/m2 in 6 Std. Regen
Fr, 27.01. 19:00 0.0 l/m2 in 12 Std. -
Fr, 27.01. 13:00 0.0 l/m2 in 6 Std. -
Ortszeit Niederschlagsmenge Niederschlagsart
So, 29.01. 7:00 0.0 l/m2 in 1 Std. Regen
So, 29.01. 6:50 keine Meldung -
So, 29.01. 6:40 keine Meldung -
So, 29.01. 6:30 0.0 l/m2 in 30 Min -
So, 29.01. 6:20 keine Meldung -
So, 29.01. 6:10 keine Meldung -
So, 29.01. 6:00 <0.05 l/m2 in 1 Std. Sprühregen
So, 29.01. 5:30 0.0 l/m2 in 30 Min -
So, 29.01. 5:00 0.0 l/m2 in 1 Std. -
So, 29.01. 4:30 0.0 l/m2 in 30 Min -
So, 29.01. 4:00 <0.05 l/m2 in 1 Std. Regen
Ortszeit Stärke Spitze Richtung
km/h Bft. km/h Grad Sektor
So, 29.01. 7:00 14 3 40 240° SW
So, 29.01. 1:00 14 3 32 230° SW
Sa, 28.01. 19:00 13 3 30 220° SW
Sa, 28.01. 13:00 14 3 32 230° SW
Sa, 28.01. 7:00 15 3 19 320° NW
Sa, 28.01. 1:00 7 2 18 90° O
Fr, 27.01. 19:00 7 2 32 60° NO
Fr, 27.01. 13:00 14 3 40 60° NO
Ortszeit Stärke Spitze Richtung
km/h Bft. km/h Grad Sektor
So, 29.01. 7:00 14 3 40 240° SW
So, 29.01. 6:50 14 3 - 240° SW
So, 29.01. 6:40 14 3 - 240° SW
So, 29.01. 6:30 22 4 40 260° W
So, 29.01. 6:20 22 4 - 260° W
So, 29.01. 6:10 22 4 - 260° W
So, 29.01. 6:00 18 3 32 250° W
So, 29.01. 5:30 17 3 31 260° W
So, 29.01. 5:00 18 3 40 260° W
So, 29.01. 4:30 20 4 39 250° W
So, 29.01. 4:00 22 4 40 260° W
Ortszeit Untergrenze Bedeckung Gattung
total tief tief mittel hoch
So, 29.01. 7:00 480 m 8/8 7/8 - - -
So, 29.01. 1:00 120 m 8/8 8/8 - - -
Sa, 28.01. 19:00 990 m 8/8 7/8 - - -
Sa, 28.01. 13:00 2700 m 6/8 5/8 - - -
Sa, 28.01. 7:00 480 m 8/8 8/8 - - -
Sa, 28.01. 1:00 930 m 8/8 8/8 - - -
Fr, 27.01. 19:00 930 m 8/8 8/8 - - -
Fr, 27.01. 13:00 840 m 7/8 7/8 - - -
Ortszeit Bedeckungsgrad in Achtel und Wolkenuntergrenze
So, 29.01. 7:00 7(480m) 7(4200m) 8(5700m)
So, 29.01. 6:50 7(480m) 7(4200m) 8(5700m)
So, 29.01. 6:40 8
So, 29.01. 6:30 3(210m) 8(330m)
So, 29.01. 6:20 3(210m) 8(330m)
So, 29.01. 6:10 8
So, 29.01. 6:00 7(210m) 8(600m) 8(1020m)
So, 29.01. 5:30 8(180m)
So, 29.01. 5:00 8(180m)
So, 29.01. 4:30 6(150m) 7(510m) 7(1140m)
So, 29.01. 4:00 7(150m) 8(420m)
Ortszeit Luftdruck NN (hPa) Tendenz (hPa in 3 Std.)
So, 29.01. 7:00 1022 - 1,1
So, 29.01. 1:00 1025 - 0,6
Sa, 28.01. 19:00 1027 - 0,7
Sa, 28.01. 13:00 1027 - 1,7
Sa, 28.01. 7:00 1028 - 0,4
Sa, 28.01. 1:00 1029 - 0,3
Fr, 27.01. 19:00 1029 + 0,8
Fr, 27.01. 13:00 1029 + 0,2
Ortszeit Luftdruck NN (hPa) Tendenz (hPa in 3 Std.)
So, 29.01. 7:00 1022 - 1,1
So, 29.01. 6:50 1022 keine Meldung
So, 29.01. 6:40 1022 keine Meldung
So, 29.01. 6:30 1023 - 1,1
So, 29.01. 6:20 1023 keine Meldung
So, 29.01. 6:10 1023 keine Meldung
So, 29.01. 6:00 1023 - 1,5
So, 29.01. 5:30 1023 - 1,2
So, 29.01. 5:00 1024 - 1,0
So, 29.01. 4:30 1023 - 1,5
So, 29.01. 4:00 1024 - 1,3
Ortszeit Schneehöhe (cm)
So, 29.01. 7:00 0
So, 29.01. 1:00 0
Sa, 28.01. 19:00 0
Sa, 28.01. 13:00 0
Sa, 28.01. 7:00 0
Sa, 28.01. 1:00 0
Fr, 27.01. 19:00 0
Fr, 27.01. 13:00 0
Ortszeit Schneehöhe (cm)
So, 29.01. 7:00 0
So, 29.01. 6:50 0
So, 29.01. 6:40 0
So, 29.01. 6:30 0
So, 29.01. 6:20 0
So, 29.01. 6:10 0
So, 29.01. 6:00 0
So, 29.01. 5:30 0
So, 29.01. 5:00 0
So, 29.01. 4:30 0
So, 29.01. 4:00 0
Link zu dieser Seite / Seite empfehlen

Das Wetter in ...